createdAt,value
2018-04-17T13:57:08.839Z,935.45
2018-04-17T13:57:21.851Z,935.38
2018-04-17T13:57:34.844Z,935.43
2018-04-17T13:57:47.389Z,935.39
2018-04-17T13:57:59.897Z,935.38
2018-04-17T13:58:12.886Z,935.39
2018-04-17T13:58:24.917Z,935.35
2018-04-17T13:58:37.384Z,935.35
2018-04-17T13:58:50.343Z,935.33
2018-04-17T13:59:02.313Z,935.33
2018-04-17T13:59:15.295Z,935.35
2018-04-17T13:59:27.787Z,935.36
2018-04-17T13:59:40.815Z,935.34
2018-04-17T13:59:53.369Z,935.39
2018-04-17T14:00:05.910Z,935.48
2018-04-17T14:00:18.887Z,935.37
2018-04-17T14:00:31.840Z,935.35
2018-04-17T14:00:43.909Z,935.35
2018-04-17T14:00:56.891Z,935.4
2018-04-17T14:01:08.980Z,935.36
2018-04-17T14:01:21.481Z,935.38
2018-04-17T14:01:33.987Z,935.34
2018-04-17T14:01:46.023Z,935.37
2018-04-17T14:01:59.023Z,935.32
2018-04-17T14:02:11.559Z,935.38
2018-04-17T14:02:24.558Z,935.36
2018-04-17T14:02:36.832Z,935.38
2018-04-17T14:02:49.371Z,935.37
2018-04-17T14:03:01.849Z,935.37
2018-04-17T14:03:14.417Z,935.34
2018-04-17T14:03:26.926Z,935.34
2018-04-17T14:03:39.465Z,935.33
2018-04-17T14:03:52.005Z,935.35
2018-04-17T14:04:04.073Z,935.34
2018-04-17T14:04:16.588Z,935.39
2018-04-17T14:04:29.595Z,935.38
2018-04-17T14:04:42.141Z,935.33
2018-04-17T14:04:55.188Z,935.33
2018-04-17T14:05:07.289Z,935.4
2018-04-17T14:05:19.351Z,935.37
2018-04-17T14:05:31.894Z,935.36
2018-04-17T14:05:44.420Z,935.38
2018-04-17T14:05:57.365Z,935.34
2018-04-17T14:06:09.914Z,935.36
2018-04-17T14:06:21.503Z,935.46
2018-04-17T14:06:33.987Z,935.35
2018-04-17T14:06:46.964Z,935.34
2018-04-17T14:06:59.949Z,935.4
2018-04-17T14:07:12.062Z,935.4
2018-04-17T14:07:25.008Z,935.34
2018-04-17T14:07:37.580Z,935.36
2018-04-17T14:07:50.602Z,935.35
2018-04-17T14:08:02.655Z,935.33
2018-04-17T14:08:14.677Z,935.35
2018-04-17T14:08:27.636Z,935.29
2018-04-17T14:08:40.155Z,935.38
2018-04-17T14:08:52.643Z,935.35
2018-04-17T14:09:05.157Z,935.35
2018-04-17T14:09:18.148Z,935.47
2018-04-17T14:09:30.683Z,935.48
2018-04-17T14:09:43.651Z,935.39
2018-04-17T14:09:56.365Z,935.43
2018-04-17T14:10:09.387Z,935.42
2018-04-17T14:10:22.379Z,935.48
2018-04-17T14:10:34.934Z,935.44
2018-04-17T14:10:47.454Z,935.44
2018-04-17T14:10:59.475Z,935.44
2018-04-17T14:11:11.977Z,935.32
2018-04-17T14:11:24.920Z,935.3
2018-04-17T14:11:37.917Z,935.31
2018-04-17T14:11:51.011Z,935.29
2018-04-17T14:12:03.562Z,935.32
2018-04-17T14:12:16.591Z,935.34
2018-04-17T14:12:29.115Z,935.31
2018-04-17T14:12:41.635Z,935.28
2018-04-17T14:12:54.695Z,935.31
2018-04-17T14:13:07.688Z,935.32
2018-04-17T14:13:19.240Z,935.31
2018-04-17T14:13:32.244Z,935.28
2018-04-17T14:13:45.304Z,935.35
2018-04-17T14:13:58.270Z,935.32
2018-04-17T14:14:10.796Z,935.44
2018-04-17T14:14:23.313Z,935.35
2018-04-17T14:14:35.311Z,935.29
2018-04-17T14:14:47.884Z,935.36
2018-04-17T14:14:59.929Z,935.36
2018-04-17T14:15:11.964Z,935.35
2018-04-17T14:15:24.972Z,935.32
2018-04-17T14:15:37.984Z,935.3
2018-04-17T14:15:50.490Z,935.29
2018-04-17T14:16:03.507Z,935.36
2018-04-17T14:16:16.036Z,935.37
2018-04-17T14:16:28.466Z,935.38
2018-04-17T14:16:41.427Z,935.33
2018-04-17T14:16:53.927Z,935.32
2018-04-17T14:17:06.419Z,935.37
2018-04-17T14:17:19.229Z,935.35
2018-04-17T14:17:32.438Z,935.36
2018-04-17T14:17:45.457Z,935.4
2018-04-17T14:17:57.524Z,935.36
2018-04-17T14:18:09.991Z,935.35
2018-04-17T14:18:22.467Z,935.39
2018-04-17T14:18:34.993Z,935.4
2018-04-17T14:18:47.512Z,935.4
2018-04-17T14:19:00.512Z,935.38
2018-04-17T14:19:12.104Z,935.36
2018-04-17T14:19:25.073Z,935.38
2018-04-17T14:19:38.110Z,935.39
2018-04-17T14:19:50.211Z,935.34
2018-04-17T14:20:03.254Z,935.32
2018-04-17T14:20:15.768Z,935.3
2018-04-17T14:20:28.288Z,935.27
2018-04-17T14:20:40.341Z,935.26
2018-04-17T14:20:52.921Z,935.27
2018-04-17T14:21:05.949Z,935.28
2018-04-17T14:21:18.536Z,935.27
2018-04-17T14:21:30.631Z,935.3
2018-04-17T14:21:43.605Z,935.26
2018-04-17T14:21:56.601Z,935.26
2018-04-17T14:22:08.625Z,935.3
2018-04-17T14:22:22.031Z,935.34
2018-04-17T14:22:34.560Z,935.31
2018-04-17T14:22:47.560Z,935.38
2018-04-17T14:23:00.616Z,935.36
2018-04-17T14:23:13.201Z,935.33
2018-04-17T14:23:25.719Z,935.34
2018-04-17T14:23:38.692Z,935.3
2018-04-17T14:23:51.620Z,935.32
2018-04-17T14:24:04.103Z,935.32
2018-04-17T14:24:16.212Z,935.33
2018-04-17T14:24:28.748Z,935.25
2018-04-17T14:24:41.288Z,935.34
2018-04-17T14:24:54.259Z,935.31
2018-04-17T14:25:05.842Z,935.4
2018-04-17T14:25:18.828Z,935.3
2018-04-17T14:25:31.403Z,935.33
2018-04-17T14:25:44.622Z,935.33
2018-04-17T14:25:57.646Z,935.3
2018-04-17T14:26:10.138Z,935.34
2018-04-17T14:26:22.680Z,935.34
2018-04-17T14:26:34.739Z,935.36
2018-04-17T14:26:47.693Z,935.3
2018-04-17T14:26:59.776Z,935.32
2018-04-17T14:27:11.860Z,935.33
2018-04-17T14:27:24.814Z,935.38
2018-04-17T14:27:36.862Z,935.4
2018-04-17T14:27:49.881Z,935.41
2018-04-17T14:28:02.454Z,935.39
2018-04-17T14:28:14.050Z,935.38
2018-04-17T14:28:26.145Z,935.38
2018-04-17T14:28:39.101Z,935.37
2018-04-17T14:28:52.102Z,935.39
2018-04-17T14:29:04.683Z,935.36
2018-04-17T14:29:17.647Z,935.4
2018-04-17T14:29:30.654Z,935.41
2018-04-17T14:29:43.642Z,935.45
2018-04-17T14:29:56.686Z,935.41
2018-04-17T14:30:09.682Z,935.39
2018-04-17T14:30:22.716Z,935.4
2018-04-17T14:30:34.794Z,935.4
2018-04-17T14:30:47.781Z,935.42
2018-04-17T14:30:59.844Z,935.44
2018-04-17T14:31:11.924Z,935.38
2018-04-17T14:31:24.423Z,935.37
2018-04-17T14:31:36.532Z,935.39
2018-04-17T14:31:49.540Z,935.36
2018-04-17T14:32:02.082Z,935.37
2018-04-17T14:32:13.275Z,935.4
2018-04-17T14:32:26.327Z,935.52
2018-04-17T14:32:38.831Z,935.49
2018-04-17T14:32:51.826Z,935.34
2018-04-17T14:33:04.318Z,935.36
2018-04-17T14:33:16.335Z,935.31
2018-04-17T14:33:29.508Z,935.3
2018-04-17T14:33:42.055Z,935.29
2018-04-17T14:33:55.035Z,935.28
2018-04-17T14:34:07.570Z,935.29
2018-04-17T14:34:20.117Z,935.32
2018-04-17T14:34:31.706Z,935.3
2018-04-17T14:34:44.698Z,935.28
2018-04-17T14:34:57.627Z,935.29
2018-04-17T14:35:10.582Z,935.28
2018-04-17T14:35:23.122Z,935.29
2018-04-17T14:35:36.134Z,935.35
2018-04-17T14:35:48.653Z,935.26
2018-04-17T14:36:01.674Z,935.26
2018-04-17T14:36:13.714Z,935.26
2018-04-17T14:36:26.248Z,935.27
2018-04-17T14:36:38.716Z,935.24
2018-04-17T14:36:51.227Z,935.24
2018-04-17T14:37:04.189Z,935.27
2018-04-17T14:37:17.166Z,935.26
2018-04-17T14:37:30.161Z,935.24
2018-04-17T14:37:42.674Z,935.22
2018-04-17T14:37:55.677Z,935.17
2018-04-17T14:38:08.202Z,935.21
2018-04-17T14:38:21.203Z,935.29
2018-04-17T14:38:33.721Z,935.19
2018-04-17T14:38:46.268Z,935.23
2018-04-17T14:38:59.207Z,935.23
2018-04-17T14:39:11.768Z,935.21
2018-04-17T14:39:24.300Z,935.22
2018-04-17T14:39:36.364Z,935.24
2018-04-17T14:39:49.374Z,935.26
2018-04-17T14:40:01.449Z,935.23
2018-04-17T14:40:13.568Z,935.26
2018-04-17T14:40:26.037Z,935.29
2018-04-17T14:40:39.036Z,935.27
2018-04-17T14:40:51.113Z,935.29
2018-04-17T14:41:03.670Z,935.28
2018-04-17T14:41:16.697Z,935.39
2018-04-17T14:41:29.170Z,935.35
2018-04-17T14:41:41.244Z,935.38
2018-04-17T14:41:53.338Z,935.37
2018-04-17T14:42:05.862Z,935.35
2018-04-17T14:42:17.988Z,935.36
2018-04-17T14:42:30.946Z,935.39
2018-04-17T14:42:43.905Z,935.34
2018-04-17T14:42:55.951Z,935.33
2018-04-17T14:43:08.540Z,935.36
2018-04-17T14:43:21.209Z,935.36
2018-04-17T14:43:34.301Z,935.34
2018-04-17T14:43:47.026Z,935.3
2018-04-17T14:43:59.553Z,935.33
2018-04-17T14:44:11.607Z,935.33
2018-04-17T14:44:24.562Z,935.32
2018-04-17T14:44:37.094Z,935.32
2018-04-17T14:44:49.610Z,935.29
2018-04-17T14:45:02.166Z,935.25
2018-04-17T14:45:15.160Z,935.3
2018-04-17T14:45:27.710Z,935.31
2018-04-17T14:45:40.258Z,935.31
2018-04-17T14:45:52.746Z,935.3
2018-04-17T14:46:05.221Z,935.31
2018-04-17T14:46:17.244Z,935.32
2018-04-17T14:46:29.771Z,935.32
2018-04-17T14:46:42.296Z,935.3
2018-04-17T14:46:54.784Z,935.27
2018-04-17T14:47:07.317Z,935.35
2018-04-17T14:47:19.844Z,935.35
2018-04-17T14:47:32.841Z,935.42
2018-04-17T14:47:45.326Z,935.31
2018-04-17T14:47:57.820Z,935.3
2018-04-17T14:48:09.841Z,935.33
2018-04-17T14:48:22.824Z,935.33
2018-04-17T14:48:35.785Z,935.25
2018-04-17T14:48:47.868Z,935.26
2018-04-17T14:49:00.428Z,935.34
2018-04-17T14:49:12.924Z,935.27
2018-04-17T14:49:25.402Z,935.26
2018-04-17T14:49:37.914Z,935.24
2018-04-17T14:49:50.534Z,935.32
2018-04-17T14:50:02.116Z,935.34
2018-04-17T14:50:14.669Z,935.27
2018-04-17T14:50:27.646Z,935.29
2018-04-17T14:50:39.691Z,935.28
2018-04-17T14:50:52.223Z,935.29
2018-04-17T14:51:04.714Z,935.26
2018-04-17T14:51:16.305Z,935.26
2018-04-17T14:51:29.217Z,935.33
2018-04-17T14:51:41.717Z,935.32
2018-04-17T14:51:54.306Z,935.27
2018-04-17T14:52:06.811Z,935.32
2018-04-17T14:52:19.425Z,935.33
2018-04-17T14:52:32.909Z,935.32
2018-04-17T14:52:45.406Z,935.36
2018-04-17T14:52:57.903Z,935.35
2018-04-17T14:53:10.480Z,935.4
2018-04-17T14:53:23.473Z,935.37
2018-04-17T14:53:36.437Z,935.35
2018-04-17T14:53:49.439Z,935.33
2018-04-17T14:54:01.911Z,935.3
2018-04-17T14:54:13.999Z,935.32
2018-04-17T14:54:26.643Z,935.3
2018-04-17T14:54:39.115Z,935.33
2018-04-17T14:54:52.063Z,935.29
2018-04-17T14:55:04.115Z,935.36
2018-04-17T14:55:17.043Z,935.35
2018-04-17T14:55:30.042Z,935.31
2018-04-17T14:55:42.124Z,935.28
2018-04-17T14:55:55.085Z,935.29
2018-04-17T14:56:07.078Z,935.3
2018-04-17T14:56:19.117Z,935.32
2018-04-17T14:56:31.634Z,935.38
2018-04-17T14:56:44.577Z,935.29
2018-04-17T14:56:57.070Z,935.32
2018-04-17T14:57:09.087Z,935.29
2018-04-17T14:57:21.626Z,935.28
2018-04-17T14:57:34.144Z,935.29
2018-04-17T14:57:47.137Z,935.27
2018-04-17T14:57:59.291Z,935.28
2018-04-17T14:58:11.436Z,935.25
2018-04-17T14:58:23.533Z,935.29
2018-04-17T14:58:36.028Z,935.29
2018-04-17T14:58:48.975Z,935.25
2018-04-17T14:59:01.965Z,935.28
2018-04-17T14:59:14.480Z,935.32
2018-04-17T14:59:27.477Z,935.26
2018-04-17T14:59:39.099Z,935.15
2018-04-17T14:59:52.039Z,935.19
2018-04-17T15:00:04.079Z,935.18
2018-04-17T15:00:15.670Z,935.23
2018-04-17T15:00:28.674Z,935.29
2018-04-17T15:00:41.717Z,935.17
2018-04-17T15:00:54.247Z,935.23
2018-04-17T15:01:06.314Z,935.23
2018-04-17T15:01:18.824Z,935.22
2018-04-17T15:01:31.419Z,935.26
2018-04-17T15:01:43.914Z,935.17
2018-04-17T15:01:56.907Z,935.06
2018-04-17T15:02:09.436Z,935.07
2018-04-17T15:02:22.445Z,935.07
2018-04-17T15:02:35.414Z,935.12
2018-04-17T15:02:48.382Z,935.18
2018-04-17T15:03:00.871Z,935.2
2018-04-17T15:03:12.976Z,935.14
2018-04-17T15:03:25.492Z,935.14
2018-04-17T15:03:37.681Z,935.17
2018-04-17T15:03:49.818Z,935.12
2018-04-17T15:04:02.840Z,935.12
2018-04-17T15:04:14.892Z,935.15
2018-04-17T15:04:27.400Z,935.11
2018-04-17T15:04:39.987Z,935.12
2018-04-17T15:04:53.005Z,935.17
2018-04-17T15:05:05.562Z,935.15
2018-04-17T15:05:18.066Z,935.11
2018-04-17T15:05:30.160Z,935.1
2018-04-17T15:05:42.693Z,935.15
2018-04-17T15:05:55.750Z,935.12
2018-04-17T15:06:07.793Z,935.09
2018-04-17T15:06:20.793Z,935.12
2018-04-17T15:06:33.305Z,935.11
2018-04-17T15:06:45.852Z,935.14
2018-04-17T15:06:58.358Z,935.13
2018-04-17T15:07:10.458Z,935.11
2018-04-17T15:07:23.522Z,935.11
2018-04-17T15:07:37.346Z,935.08
2018-04-17T15:07:49.856Z,935.1
2018-04-17T15:08:02.409Z,935.11
2018-04-17T15:08:15.430Z,935.09
2018-04-17T15:08:28.458Z,935.05
2018-04-17T15:08:41.503Z,935.05
2018-04-17T15:08:56.824Z,935.06
2018-04-17T15:09:08.406Z,935.09
2018-04-17T15:09:20.935Z,935.09
2018-04-17T15:09:33.009Z,935.06
2018-04-17T15:09:45.039Z,935.1
2018-04-17T15:09:57.532Z,935.05
2018-04-17T15:10:10.019Z,935
2018-04-17T15:10:22.498Z,935.04
2018-04-17T15:10:35.456Z,934.98
2018-04-17T15:10:48.489Z,934.99
2018-04-17T15:11:01.015Z,935
2018-04-17T15:11:12.636Z,935.05
2018-04-17T15:11:25.147Z,935.02
2018-04-17T15:11:36.720Z,935
2018-04-17T15:11:49.769Z,935.05
2018-04-17T15:12:01.793Z,934.97
2018-04-17T15:12:14.333Z,934.99
2018-04-17T15:12:26.853Z,935.05
2018-04-17T15:12:39.463Z,935.01
2018-04-17T15:12:52.407Z,935.04
2018-04-17T15:13:04.392Z,935.01
2018-04-17T15:13:16.859Z,935.02
2018-04-17T15:13:29.381Z,935.03
2018-04-17T15:13:41.927Z,935.04
2018-04-17T15:13:53.995Z,935.05
2018-04-17T15:14:07.049Z,935.02
2018-04-17T15:14:19.567Z,935.03
2018-04-17T15:14:32.113Z,935.06
2018-04-17T15:14:44.653Z,935.04
2018-04-17T15:14:56.687Z,935.05
2018-04-17T15:15:09.184Z,935.01
2018-04-17T15:15:21.894Z,935.02
2018-04-17T15:15:34.913Z,935.03
2018-04-17T15:15:47.436Z,935.11
2018-04-17T15:16:00.399Z,935.12
2018-04-17T15:16:13.366Z,935.06
2018-04-17T15:16:25.440Z,935.1
2018-04-17T15:16:38.487Z,935.12
2018-04-17T15:16:51.519Z,935.1
2018-04-17T15:17:04.008Z,935.14
2018-04-17T15:17:16.041Z,935.11
2018-04-17T15:17:29.067Z,935.12
2018-04-17T15:17:41.589Z,935.11
2018-04-17T15:17:54.125Z,935.04
2018-04-17T15:18:06.641Z,935.03
2018-04-17T15:18:19.224Z,934.98
2018-04-17T15:18:32.200Z,935.09
2018-04-17T15:18:45.205Z,935.05
2018-04-17T15:18:58.186Z,935.2
2018-04-17T15:19:10.284Z,935.05
2018-04-17T15:19:22.863Z,935.16
2018-04-17T15:19:35.407Z,935.2
2018-04-17T15:19:47.935Z,935.15
2018-04-17T15:20:00.890Z,935.14
2018-04-17T15:20:13.419Z,935.12
2018-04-17T15:20:25.509Z,935.19
2018-04-17T15:20:38.002Z,935.05
2018-04-17T15:20:51.043Z,935.15
2018-04-17T15:21:03.576Z,935.1
2018-04-17T15:21:15.643Z,934.98
2018-04-17T15:21:27.714Z,935.2
2018-04-17T15:21:40.294Z,935.14
2018-04-17T15:21:52.359Z,935.14
2018-04-17T15:22:05.366Z,935.06
2018-04-17T15:22:17.924Z,935.18
2018-04-17T15:22:30.888Z,935.11
2018-04-17T15:22:42.681Z,935
2018-04-17T15:22:55.705Z,935.05
2018-04-17T15:23:07.257Z,935.08
2018-04-17T15:23:20.249Z,935.14
2018-04-17T15:23:32.746Z,935.08
2018-04-17T15:23:44.508Z,935.04
2018-04-17T15:23:57.060Z,935.08
2018-04-17T15:24:09.621Z,935.06
2018-04-17T15:24:21.644Z,935.05
2018-04-17T15:24:33.212Z,935.09
2018-04-17T15:24:46.180Z,935.03
2018-04-17T15:24:59.147Z,935
2018-04-17T15:25:12.144Z,934.98
2018-04-17T15:25:25.080Z,935.02
2018-04-17T15:25:37.113Z,935.02
2018-04-17T15:25:49.156Z,934.98
2018-04-17T15:26:01.623Z,935
2018-04-17T15:26:13.691Z,934.96
2018-04-17T15:26:26.597Z,934.96
2018-04-17T15:26:38.620Z,934.98
2018-04-17T15:26:50.216Z,934.96
2018-04-17T15:27:02.700Z,935
2018-04-17T15:27:15.175Z,934.94
2018-04-17T15:27:28.157Z,934.97
2018-04-17T15:27:41.164Z,934.93
2018-04-17T15:27:53.667Z,934.9
2018-04-17T15:28:06.651Z,934.87
2018-04-17T15:28:19.651Z,934.89
2018-04-17T15:28:32.618Z,934.88
2018-04-17T15:28:45.173Z,934.89
2018-04-17T15:28:57.216Z,934.88
2018-04-17T15:29:09.725Z,934.9
2018-04-17T15:29:24.045Z,934.86
2018-04-17T15:29:35.634Z,934.88
2018-04-17T15:29:48.631Z,934.85
2018-04-17T15:30:01.662Z,934.84
2018-04-17T15:30:13.735Z,934.91
2018-04-17T15:30:26.225Z,934.79
2018-04-17T15:30:37.800Z,934.79
2018-04-17T15:30:50.275Z,934.86
2018-04-17T15:31:02.734Z,934.87
2018-04-17T15:31:14.796Z,934.83
2018-04-17T15:31:26.879Z,934.88
2018-04-17T15:31:39.868Z,934.84
2018-04-17T15:31:52.434Z,934.75
2018-04-17T15:32:05.350Z,934.86
2018-04-17T15:32:17.903Z,934.78
2018-04-17T15:32:30.894Z,934.75
2018-04-17T15:32:43.449Z,934.77
2018-04-17T15:32:56.504Z,934.75
2018-04-17T15:33:09.020Z,934.78
2018-04-17T15:33:22.013Z,934.77
2018-04-17T15:33:34.543Z,934.81
2018-04-17T15:33:47.057Z,934.77
2018-04-17T15:33:59.582Z,934.74
2018-04-17T15:34:12.579Z,934.74
2018-04-17T15:34:24.659Z,934.73
2018-04-17T15:34:37.141Z,934.72
2018-04-17T15:34:49.633Z,934.72
2018-04-17T15:35:02.593Z,934.68
2018-04-17T15:35:15.574Z,934.71
2018-04-17T15:35:28.049Z,934.73
2018-04-17T15:35:40.583Z,934.76
2018-04-17T15:35:53.113Z,934.79
2018-04-17T15:36:05.655Z,934.76
2018-04-17T15:36:18.136Z,934.74
2018-04-17T15:36:30.147Z,934.75
2018-04-17T15:36:43.152Z,934.75
2018-04-17T15:36:55.664Z,934.74
2018-04-17T15:37:07.273Z,934.73
2018-04-17T15:37:19.781Z,934.76
2018-04-17T15:37:32.802Z,934.81
2018-04-17T15:37:46.118Z,934.76
2018-04-17T15:37:59.099Z,934.8
2018-04-17T15:38:11.155Z,934.77
2018-04-17T15:38:24.336Z,934.75
2018-04-17T15:38:37.309Z,934.73
2018-04-17T15:38:50.337Z,934.58
2018-04-17T15:39:01.906Z,934.71
2018-04-17T15:39:14.911Z,934.64
2018-04-17T15:39:27.383Z,934.76
2018-04-17T15:39:40.356Z,934.72
2018-04-17T15:39:53.375Z,934.73
2018-04-17T15:40:05.894Z,934.73
2018-04-17T15:40:17.924Z,934.76
2018-04-17T15:40:30.478Z,934.67
2018-04-17T15:40:43.009Z,934.59
2018-04-17T15:40:55.524Z,934.55
2018-04-17T15:41:08.076Z,934.56
2018-04-17T15:41:20.602Z,934.56
2018-04-17T15:41:33.612Z,934.58
2018-04-17T15:41:46.594Z,934.56
2018-04-17T15:41:59.088Z,934.58
2018-04-17T15:42:10.677Z,934.56
2018-04-17T15:42:23.186Z,934.59
2018-04-17T15:42:36.144Z,934.64
2018-04-17T15:42:48.668Z,934.54
2018-04-17T15:43:01.628Z,934.56
2018-04-17T15:43:14.162Z,934.54
2018-04-17T15:43:27.072Z,934.53
2018-04-17T15:43:40.040Z,934.55
2018-04-17T15:43:52.543Z,934.53
2018-04-17T15:44:05.515Z,934.54
2018-04-17T15:44:17.536Z,934.61
2018-04-17T15:44:30.066Z,934.64
2018-04-17T15:44:43.090Z,934.59
2018-04-17T15:44:55.696Z,934.57
2018-04-17T15:45:07.271Z,934.57
2018-04-17T15:45:20.238Z,934.56
2018-04-17T15:45:32.772Z,934.59
2018-04-17T15:45:45.350Z,934.59
2018-04-17T15:45:57.854Z,934.53
2018-04-17T15:46:09.404Z,934.53
2018-04-17T15:46:21.489Z,934.53
2018-04-17T15:46:34.488Z,934.53
2018-04-17T15:46:47.380Z,934.54
2018-04-17T15:46:59.908Z,934.56
2018-04-17T15:47:12.420Z,934.55
2018-04-17T15:47:25.364Z,934.54
2018-04-17T15:47:37.844Z,934.52
2018-04-17T15:47:50.320Z,934.55
2018-04-17T15:48:02.834Z,934.51
2018-04-17T15:48:14.901Z,934.53
2018-04-17T15:48:26.973Z,934.53
2018-04-17T15:48:39.023Z,934.48
2018-04-17T15:48:52.038Z,934.56
2018-04-17T15:49:04.592Z,934.52
2018-04-17T15:49:17.092Z,934.53
2018-04-17T15:49:29.681Z,934.51
2018-04-17T15:49:42.157Z,934.52
2018-04-17T15:49:54.650Z,934.45
2018-04-17T15:50:07.634Z,934.5
2018-04-17T15:50:20.156Z,934.48
2018-04-17T15:50:32.719Z,934.47
2018-04-17T15:50:45.399Z,934.48
2018-04-17T15:50:57.985Z,934.46
2018-04-17T15:51:10.068Z,934.47
2018-04-17T15:51:22.123Z,934.48
2018-04-17T15:51:35.122Z,934.48
2018-04-17T15:51:47.161Z,934.45
2018-04-17T15:51:59.228Z,934.43
2018-04-17T15:52:11.310Z,934.4
2018-04-17T15:52:24.264Z,934.43
2018-04-17T15:52:36.791Z,934.44
2018-04-17T15:52:49.976Z,934.39
2018-04-17T15:53:01.587Z,934.41
2018-04-17T15:53:14.164Z,934.43
2018-04-17T15:53:26.660Z,934.42
2018-04-17T15:53:39.666Z,934.42
2018-04-17T15:53:52.671Z,934.45
2018-04-17T15:54:05.721Z,934.44
2018-04-17T15:54:17.829Z,934.47
2018-04-17T15:54:30.416Z,934.45
2018-04-17T15:54:43.408Z,934.48
2018-04-17T15:54:56.420Z,934.5
2018-04-17T15:55:08.508Z,934.45
2018-04-17T15:55:21.013Z,934.47
2018-04-17T15:55:33.026Z,934.43
2018-04-17T15:55:45.526Z,934.43
2018-04-17T15:55:58.054Z,934.42
2018-04-17T15:56:10.616Z,934.43
2018-04-17T15:56:23.641Z,934.4
2018-04-17T15:56:36.654Z,934.43
2018-04-17T15:56:49.218Z,934.46
2018-04-17T15:57:01.780Z,934.44
2018-04-17T15:57:13.837Z,934.42
2018-04-17T15:57:26.823Z,934.45
2018-04-17T15:57:38.841Z,934.46
2018-04-17T15:57:50.902Z,934.42
2018-04-17T15:58:03.413Z,934.39
2018-04-17T15:58:15.916Z,934.39
2018-04-17T15:58:28.828Z,934.47
2018-04-17T15:58:41.785Z,934.49
2018-04-17T15:58:54.303Z,934.43
2018-04-17T15:59:07.320Z,934.43
2018-04-17T15:59:20.318Z,934.42
2018-04-17T15:59:33.243Z,934.42
2018-04-17T15:59:46.219Z,934.41
2018-04-17T15:59:58.293Z,934.42
2018-04-17T16:00:10.310Z,934.4
2018-04-17T16:00:22.354Z,934.4
2018-04-17T16:00:34.886Z,934.4
2018-04-17T16:00:46.967Z,934.45
2018-04-17T16:01:00.006Z,934.43
2018-04-17T16:01:12.064Z,934.43
2018-04-17T16:01:24.551Z,934.37
2018-04-17T16:01:37.581Z,934.44
2018-04-17T16:01:50.103Z,934.43
2018-04-17T16:02:02.167Z,934.47
2018-04-17T16:02:13.838Z,934.39
2018-04-17T16:02:25.937Z,934.42
2018-04-17T16:02:39.089Z,934.47
2018-04-17T16:02:51.150Z,934.47
2018-04-17T16:03:04.141Z,934.47
2018-04-17T16:03:16.682Z,934.46
2018-04-17T16:03:28.853Z,934.47
2018-04-17T16:03:42.032Z,934.46
2018-04-17T16:03:54.210Z,934.45
2018-04-17T16:04:07.235Z,934.43
2018-04-17T16:04:19.342Z,934.41
2018-04-17T16:04:30.954Z,934.43
2018-04-17T16:04:43.964Z,934.48
2018-04-17T16:04:56.916Z,934.44
2018-04-17T16:05:09.875Z,934.4
2018-04-17T16:05:21.913Z,934.43
2018-04-17T16:05:34.403Z,934.47
2018-04-17T16:05:47.417Z,934.6
2018-04-17T16:06:00.439Z,934.61
2018-04-17T16:06:11.986Z,934.64
2018-04-17T16:06:23.582Z,934.61
2018-04-17T16:06:36.127Z,934.53
2018-04-17T16:06:49.203Z,934.44
2018-04-17T16:07:01.725Z,934.47
2018-04-17T16:07:13.781Z,934.42
2018-04-17T16:07:26.305Z,934.43
2018-04-17T16:07:38.849Z,934.44
2018-04-17T16:07:52.660Z,934.52
2018-04-17T16:08:04.761Z,934.51
2018-04-17T16:08:17.228Z,934.46
2018-04-17T16:08:30.245Z,934.43
2018-04-17T16:08:43.449Z,934.46
2018-04-17T16:08:55.525Z,934.52
2018-04-17T16:09:08.776Z,934.54
2018-04-17T16:09:21.773Z,934.54
2018-04-17T16:09:33.851Z,934.61
2018-04-17T16:09:46.429Z,934.49
2018-04-17T16:09:59.103Z,934.51
2018-04-17T16:10:10.652Z,934.54
2018-04-17T16:10:23.601Z,934.38
2018-04-17T16:10:36.106Z,934.45
2018-04-17T16:10:48.177Z,934.32
2018-04-17T16:11:00.668Z,934.44
2018-04-17T16:11:12.693Z,934.55
2018-04-17T16:11:24.314Z,934.47
2018-04-17T16:11:36.844Z,934.48
2018-04-17T16:11:48.881Z,934.38
2018-04-17T16:12:01.387Z,934.38
2018-04-17T16:12:13.931Z,934.36
2018-04-17T16:12:26.485Z,934.36
2018-04-17T16:12:39.483Z,934.36
2018-04-17T16:12:51.508Z,934.33
2018-04-17T16:13:04.782Z,934.29
2018-04-17T16:13:17.367Z,934.28
2018-04-17T16:13:29.945Z,934.34
2018-04-17T16:13:42.031Z,934.33
2018-04-17T16:13:55.061Z,934.34
2018-04-17T16:14:07.171Z,934.29
2018-04-17T16:14:20.166Z,934.31
2018-04-17T16:14:32.269Z,934.32
2018-04-17T16:14:44.760Z,934.29
2018-04-17T16:14:57.723Z,934.32
2018-04-17T16:15:09.758Z,934.29
2018-04-17T16:15:21.862Z,934.29
2018-04-17T16:15:34.817Z,934.32
2018-04-17T16:15:47.843Z,934.4
2018-04-17T16:16:00.877Z,934.33
2018-04-17T16:16:13.450Z,934.36
2018-04-17T16:16:25.528Z,934.41
2018-04-17T16:16:38.485Z,934.28
2018-04-17T16:16:50.084Z,934.35
2018-04-17T16:17:02.567Z,934.46
2018-04-17T16:17:15.126Z,934.42
2018-04-17T16:17:28.125Z,934.34
2018-04-17T16:17:40.128Z,934.38
2018-04-17T16:17:52.678Z,934.33
2018-04-17T16:18:04.276Z,934.26
2018-04-17T16:18:17.276Z,934.27
2018-04-17T16:18:29.347Z,934.26
2018-04-17T16:18:42.361Z,934.2
2018-04-17T16:18:54.418Z,934.2
2018-04-17T16:19:06.962Z,934.21
2018-04-17T16:19:19.979Z,934.22
2018-04-17T16:19:32.975Z,934.18
2018-04-17T16:19:45.486Z,934.23
2018-04-17T16:19:58.483Z,934.21
2018-04-17T16:20:11.027Z,934.27
2018-04-17T16:20:24.035Z,934.23
2018-04-17T16:20:36.014Z,934.23
2018-04-17T16:20:49.025Z,934.23
2018-04-17T16:21:12.034Z,934.24
2018-04-17T16:21:24.654Z,934.21
2018-04-17T16:21:37.280Z,934.16
2018-04-17T16:21:49.391Z,934.25
2018-04-17T16:22:01.455Z,934.24
2018-04-17T16:22:13.963Z,934.23
2018-04-17T16:22:26.547Z,934.18
2018-04-17T16:22:39.496Z,934.26
2018-04-17T16:22:52.045Z,934.15
2018-04-17T16:23:05.398Z,934.19
2018-04-17T16:23:18.360Z,934.15
2018-04-17T16:23:30.929Z,934.15
2018-04-17T16:23:43.904Z,934.14
2018-04-17T16:23:56.434Z,934.2
2018-04-17T16:24:09.418Z,934.16
2018-04-17T16:24:21.913Z,934.19
2018-04-17T16:24:34.421Z,934.17
2018-04-17T16:24:47.395Z,934.21
2018-04-17T16:25:00.358Z,934.19
2018-04-17T16:25:12.882Z,934.21
2018-04-17T16:25:25.429Z,934.22
2018-04-17T16:25:38.472Z,934.31
2018-04-17T16:25:51.055Z,934.17
2018-04-17T16:26:02.646Z,934.13
2018-04-17T16:26:15.201Z,934.17
2018-04-17T16:26:27.680Z,934.2
2018-04-17T16:26:39.338Z,934.18
2018-04-17T16:26:51.911Z,934.21
2018-04-17T16:27:04.532Z,934.2
2018-04-17T16:27:17.608Z,934.2
2018-04-17T16:27:30.116Z,934.18
2018-04-17T16:27:43.081Z,934.18
2018-04-17T16:27:56.023Z,934.19
2018-04-17T16:28:08.107Z,934.22
2018-04-17T16:28:20.649Z,934.16
2018-04-17T16:28:33.555Z,934.16
2018-04-17T16:28:46.482Z,934.15
2018-04-17T16:28:59.446Z,934.18
2018-04-17T16:29:12.406Z,934.17
2018-04-17T16:29:24.908Z,934.18
2018-04-17T16:29:37.838Z,934.16
2018-04-17T16:29:49.927Z,934.16
2018-04-17T16:30:02.945Z,934.2
2018-04-17T16:30:15.435Z,934.2
2018-04-17T16:30:28.382Z,934.2
2018-04-17T16:30:41.375Z,934.22
2018-04-17T16:30:54.354Z,934.2
2018-04-17T16:31:06.857Z,934.23
2018-04-17T16:31:19.390Z,934.2
2018-04-17T16:31:30.976Z,934.2
2018-04-17T16:31:44.015Z,934.19
2018-04-17T16:31:57.019Z,934.15
2018-04-17T16:32:09.597Z,934.17
2018-04-17T16:32:21.652Z,934.2
2018-04-17T16:32:34.206Z,934.17
2018-04-17T16:32:46.711Z,934.17
2018-04-17T16:32:59.241Z,934.1
2018-04-17T16:33:12.290Z,934.22
2018-04-17T16:33:24.830Z,934.21
2018-04-17T16:33:37.781Z,934.15
2018-04-17T16:33:49.822Z,934.15
2018-04-17T16:34:02.355Z,934.14
2018-04-17T16:34:14.451Z,934.19
2018-04-17T16:34:26.540Z,934.23
2018-04-17T16:34:38.677Z,934.22